createdAt,value
2019-03-19T00:00:34.540Z,101793.75
2019-03-19T00:03:04.568Z,101797.31
2019-03-19T00:05:33.888Z,101807.78
2019-03-19T00:08:03.342Z,101803.25
2019-03-19T00:10:32.652Z,101810.02
2019-03-19T00:13:01.967Z,101804.61
2019-03-19T00:15:31.253Z,101811.92
2019-03-19T00:18:00.588Z,101813.31
2019-03-19T00:20:29.911Z,101813.98
2019-03-19T00:22:59.701Z,101816.94
2019-03-19T00:25:30.595Z,101816.11
2019-03-19T00:28:00.187Z,101818.53
2019-03-19T00:30:29.766Z,101812.48
2019-03-19T00:32:59.442Z,101820.15
2019-03-19T00:35:28.801Z,101821.23
2019-03-19T00:37:58.098Z,101821.79
2019-03-19T00:40:27.402Z,101815.79
2019-03-19T00:42:56.719Z,101824.30
2019-03-19T00:45:26.080Z,101819.63
2019-03-19T00:47:55.464Z,101821.79
2019-03-19T00:50:24.763Z,101818.59
2019-03-19T00:52:54.286Z,101826.35
2019-03-19T00:55:25.288Z,101821.34
2019-03-19T00:57:55.752Z,101821.78
2019-03-19T01:00:25.903Z,101816.80
2019-03-19T01:02:55.479Z,101817.10
2019-03-19T01:05:24.775Z,101823.48
2019-03-19T01:07:54.266Z,101830.92
2019-03-19T01:10:23.661Z,101842.23
2019-03-19T01:12:52.981Z,101847.84
2019-03-19T01:15:22.428Z,101841.41
2019-03-19T01:17:51.743Z,101842.48
2019-03-19T01:20:21.032Z,101837.61
2019-03-19T01:22:50.333Z,101846.55
2019-03-19T01:25:20.379Z,101849.23
2019-03-19T01:27:49.887Z,101849.44
2019-03-19T01:30:19.670Z,101841.36
2019-03-19T01:32:49.136Z,101841.67
2019-03-19T01:35:18.712Z,101835.08
2019-03-19T01:37:48.038Z,101842.45
2019-03-19T01:40:17.807Z,101847.92
2019-03-19T01:42:47.122Z,101862.89
2019-03-19T01:45:17.605Z,101861.74
2019-03-19T01:47:46.889Z,101868.09
2019-03-19T01:50:16.576Z,101864.14
2019-03-19T01:52:45.936Z,101862.61
2019-03-19T01:55:15.891Z,101860.33
2019-03-19T01:57:45.182Z,101858.88
2019-03-19T02:00:18.639Z,101861.74
2019-03-19T02:02:47.949Z,101859.81
2019-03-19T02:05:17.410Z,101865.73
2019-03-19T02:07:46.901Z,101861.19
2019-03-19T02:10:16.328Z,101865.94
2019-03-19T02:12:45.705Z,101868.99
2019-03-19T02:15:16.679Z,101870.23
2019-03-19T02:17:46.041Z,101867.98
2019-03-19T02:20:17.578Z,101876.97
2019-03-19T02:22:47.027Z,101863.06
2019-03-19T02:25:16.718Z,101866.57
2019-03-19T02:27:46.015Z,101870.33
2019-03-19T02:30:16.596Z,101874.58
2019-03-19T02:32:46.041Z,101880.02
2019-03-19T02:35:15.416Z,101871.31
2019-03-19T02:37:44.811Z,101869.94
2019-03-19T02:40:17.752Z,101874.14
2019-03-19T02:42:47.057Z,101884.20
2019-03-19T02:45:16.506Z,101891.30
2019-03-19T02:47:45.819Z,101893.58
2019-03-19T02:50:18.933Z,101893.20
2019-03-19T02:52:48.243Z,101894.45
2019-03-19T02:55:17.529Z,101909.32
2019-03-19T02:57:46.883Z,101914.44
2019-03-19T03:00:17.610Z,101911.09
2019-03-19T03:02:47.217Z,101914.83
2019-03-19T03:05:21.315Z,101916.66
2019-03-19T03:07:50.664Z,101923.86
2019-03-19T03:10:19.982Z,101922.12
2019-03-19T03:12:49.289Z,101919.17
2019-03-19T03:15:18.751Z,101920.05
2019-03-19T03:17:48.122Z,101918.14
2019-03-19T03:20:17.981Z,101928.77
2019-03-19T03:22:47.308Z,101934.45
2019-03-19T03:25:19.251Z,101941.94
2019-03-19T03:27:48.745Z,101953.34
2019-03-19T03:30:20.370Z,101958.91
2019-03-19T03:32:49.713Z,101961.92
2019-03-19T03:35:19.015Z,101960.99
2019-03-19T03:37:48.348Z,101958.45
2019-03-19T03:40:19.354Z,101963.89
2019-03-19T03:42:48.834Z,101964.06
2019-03-19T03:45:19.490Z,101976.00
2019-03-19T03:47:48.874Z,101976.13
2019-03-19T03:50:19.444Z,101970.89
2019-03-19T03:52:48.721Z,101965.30
2019-03-19T03:55:20.256Z,101970.95
2019-03-19T03:57:49.691Z,101972.99
2019-03-19T04:00:20.447Z,101975.80
2019-03-19T04:02:49.994Z,101981.62
2019-03-19T04:05:19.848Z,101987.30
2019-03-19T04:07:49.170Z,101980.15
2019-03-19T04:10:19.439Z,101980.28
2019-03-19T04:12:48.825Z,101983.92
2019-03-19T04:15:19.417Z,101984.99
2019-03-19T04:17:49.108Z,101995.89
2019-03-19T04:20:18.976Z,101983.92
2019-03-19T04:22:48.277Z,101986.23
2019-03-19T04:25:17.670Z,101993.02
2019-03-19T04:27:47.193Z,102001.91
2019-03-19T04:30:20.549Z,101998.10
2019-03-19T04:32:49.846Z,102002.95
2019-03-19T04:35:19.156Z,102004.48
2019-03-19T04:37:48.484Z,102003.75
2019-03-19T04:40:17.845Z,102011.20
2019-03-19T04:42:47.194Z,102006.97
2019-03-19T04:45:17.414Z,102006.02
2019-03-19T04:47:46.798Z,102003.16
2019-03-19T04:50:17.259Z,102007.03
2019-03-19T04:52:46.540Z,102009.82
2019-03-19T04:55:16.690Z,102008.12
2019-03-19T04:57:46.099Z,102002.81
2019-03-19T05:00:20.487Z,101996.67
2019-03-19T05:02:49.966Z,102001.17
2019-03-19T05:05:19.269Z,102002.94
2019-03-19T05:07:49.032Z,101997.70
2019-03-19T05:10:21.310Z,102002.29
2019-03-19T05:12:50.633Z,102012.71
2019-03-19T05:15:19.922Z,102011.81
2019-03-19T05:17:49.262Z,102017.42
2019-03-19T05:20:19.036Z,102027.95
2019-03-19T05:22:48.430Z,102030.73
2019-03-19T05:25:17.716Z,102025.41
2019-03-19T05:27:47.037Z,102020.77
2019-03-19T05:30:17.958Z,102022.48
2019-03-19T05:32:47.428Z,102028.48
2019-03-19T05:35:16.912Z,102038.41
2019-03-19T05:37:46.614Z,102043.33
2019-03-19T05:40:16.762Z,102049.22
2019-03-19T05:42:46.139Z,102047.29
2019-03-19T05:45:15.957Z,102038.26
2019-03-19T05:47:45.345Z,102048.53
2019-03-19T05:50:19.536Z,102047.14
2019-03-19T05:52:48.981Z,102049.54
2019-03-19T05:55:18.394Z,102050.88
2019-03-19T05:57:49.759Z,102054.16
2019-03-19T06:00:27.103Z,102061.88
2019-03-19T06:02:56.472Z,102059.33
2019-03-19T06:05:25.729Z,102064.08
2019-03-19T06:07:55.080Z,102073.05
2019-03-19T06:10:26.009Z,102077.83
2019-03-19T06:12:55.334Z,102067.66
2019-03-19T06:15:24.710Z,102073.78
2019-03-19T06:17:54.201Z,102070.00
2019-03-19T06:20:23.636Z,102071.48
2019-03-19T06:22:53.008Z,102065.74
2019-03-19T06:25:22.786Z,102069.91
2019-03-19T06:27:59.769Z,102069.63
2019-03-19T06:30:24.985Z,102071.74
2019-03-19T06:32:54.315Z,102065.72
2019-03-19T06:35:23.623Z,102072.59
2019-03-19T06:37:52.938Z,102083.18
2019-03-19T06:40:22.805Z,102094.05
2019-03-19T06:42:52.098Z,102103.33
2019-03-19T06:45:23.178Z,102096.34
2019-03-19T06:47:52.689Z,102086.62
2019-03-19T06:50:22.539Z,102091.16
2019-03-19T06:52:51.825Z,102088.94
2019-03-19T06:55:21.567Z,102087.77
2019-03-19T06:57:50.919Z,102098.39
2019-03-19T07:00:24.128Z,102105.09
2019-03-19T07:02:53.514Z,102101.49
2019-03-19T07:05:23.148Z,102105.46
2019-03-19T07:07:52.617Z,102111.56
2019-03-19T07:10:22.385Z,102110.38
2019-03-19T07:12:51.685Z,102119.37
2019-03-19T07:15:22.000Z,102127.63
2019-03-19T07:17:51.324Z,102135.14
2019-03-19T07:20:30.106Z,102135.14
2019-03-19T07:22:59.416Z,102134.79
2019-03-19T07:25:28.722Z,102134.79
2019-03-19T07:27:58.047Z,102133.30
2019-03-19T07:30:27.890Z,102131.95
2019-03-19T07:32:57.165Z,102131.39
2019-03-19T07:35:26.841Z,102126.93
2019-03-19T07:37:56.143Z,102131.55
2019-03-19T07:40:25.609Z,102134.71
2019-03-19T07:42:54.910Z,102130.03
2019-03-19T07:45:27.433Z,102126.03
2019-03-19T07:47:56.797Z,102125.32
2019-03-19T07:50:26.300Z,102131.30
2019-03-19T07:52:55.713Z,102125.09
2019-03-19T07:55:24.987Z,102140.45
2019-03-19T07:57:54.304Z,102141.13
2019-03-19T08:00:23.894Z,102145.05
2019-03-19T08:02:53.252Z,102142.92
2019-03-19T08:05:32.542Z,102145.92
2019-03-19T08:07:53.481Z,102140.50
2019-03-19T08:10:22.823Z,102146.13
2019-03-19T08:12:52.142Z,102141.97
2019-03-19T08:15:22.064Z,102142.30
2019-03-19T08:17:51.439Z,102146.31
2019-03-19T08:20:20.728Z,102142.81
2019-03-19T08:22:50.026Z,102142.33
2019-03-19T08:25:19.407Z,102139.67
2019-03-19T08:27:48.707Z,102147.52
2019-03-19T08:30:21.061Z,102138.09
2019-03-19T08:32:50.383Z,102129.02
2019-03-19T08:35:19.744Z,102129.43
2019-03-19T08:37:49.041Z,102129.48
2019-03-19T08:40:18.978Z,102123.53
2019-03-19T08:42:48.266Z,102126.38
2019-03-19T08:45:22.595Z,102126.27
2019-03-19T08:47:51.972Z,102123.16
2019-03-19T08:50:24.421Z,102123.95
2019-03-19T08:52:55.349Z,102126.94
2019-03-19T08:55:24.786Z,102127.17
2019-03-19T08:57:54.092Z,102131.03
2019-03-19T09:00:27.837Z,102122.00
2019-03-19T09:02:57.121Z,102136.30
2019-03-19T09:05:26.431Z,102139.34
2019-03-19T09:07:55.738Z,102141.54
2019-03-19T09:10:25.068Z,102146.09
2019-03-19T09:12:54.348Z,102146.28
2019-03-19T09:15:28.214Z,102148.88
2019-03-19T09:17:57.530Z,102157.99
2019-03-19T09:20:26.975Z,102152.13
2019-03-19T09:22:56.265Z,102158.86
2019-03-19T09:25:25.648Z,102152.37
2019-03-19T09:27:54.928Z,102150.09
2019-03-19T09:30:24.909Z,102161.89
2019-03-19T09:32:54.192Z,102165.39
2019-03-19T09:35:23.571Z,102172.34
2019-03-19T09:37:58.160Z,102171.23
2019-03-19T09:40:23.934Z,102158.62
2019-03-19T09:42:53.225Z,102167.79
2019-03-19T09:45:22.546Z,102163.28
2019-03-19T09:47:51.836Z,102175.76
2019-03-19T09:50:25.810Z,102160.61
2019-03-19T09:52:55.092Z,102155.07
2019-03-19T09:55:24.400Z,102163.23
2019-03-19T09:57:53.683Z,102165.10
2019-03-19T10:00:24.312Z,102171.14
2019-03-19T10:02:53.611Z,102172.31
2019-03-19T10:05:22.917Z,102170.78
2019-03-19T10:07:52.235Z,102166.45
2019-03-19T10:10:22.420Z,102156.72
2019-03-19T10:12:51.782Z,102169.33
2019-03-19T10:15:21.198Z,102161.44
2019-03-19T10:17:50.497Z,102156.36
2019-03-19T10:20:21.963Z,102160.44
2019-03-19T10:22:51.346Z,102165.00
2019-03-19T10:25:20.621Z,102170.13
2019-03-19T10:27:50.002Z,102135.21
2019-03-19T10:30:23.968Z,102177.41
2019-03-19T10:32:53.343Z,102180.58
2019-03-19T10:35:22.714Z,102174.55
2019-03-19T10:37:52.006Z,102186.86
2019-03-19T10:40:22.121Z,102184.23
2019-03-19T10:42:51.447Z,102183.27
2019-03-19T10:45:21.991Z,102187.42
2019-03-19T10:47:51.382Z,102178.16
2019-03-19T10:50:21.408Z,102177.09
2019-03-19T10:52:50.714Z,102174.80
2019-03-19T10:55:20.124Z,102181.20
2019-03-19T10:57:49.437Z,102174.73
2019-03-19T11:00:23.952Z,102170.46
2019-03-19T11:02:53.774Z,102178.55
2019-03-19T11:05:24.951Z,102175.49
2019-03-19T11:07:54.368Z,102173.84
2019-03-19T11:10:23.819Z,102177.95
2019-03-19T11:12:53.213Z,102188.69
2019-03-19T11:15:23.766Z,102179.62
2019-03-19T11:17:53.123Z,102170.38
2019-03-19T11:20:22.610Z,102170.91
2019-03-19T11:22:51.974Z,102186.67
2019-03-19T11:25:23.010Z,102179.81
2019-03-19T11:27:52.367Z,102182.50
2019-03-19T11:30:25.740Z,102184.22
2019-03-19T11:32:55.073Z,102173.84
2019-03-19T11:35:24.719Z,102183.66
2019-03-19T11:37:54.069Z,102190.91
2019-03-19T11:40:25.601Z,102176.06
2019-03-19T11:42:54.500Z,102176.36
2019-03-19T11:45:24.346Z,102166.73
2019-03-19T11:47:53.882Z,102177.25
2019-03-19T11:50:33.699Z,102171.35
2019-03-19T11:53:03.008Z,102182.42
2019-03-19T11:55:32.321Z,102176.12
2019-03-19T11:58:01.671Z,102169.03
2019-03-19T12:00:38.988Z,102167.17
2019-03-19T12:03:15.258Z,102172.28
2019-03-19T12:05:39.355Z,102172.41
2019-03-19T12:08:08.670Z,102176.20
2019-03-19T12:10:37.952Z,102164.94
2019-03-19T12:13:07.333Z,102167.18
2019-03-19T12:15:36.611Z,102162.95
2019-03-19T12:18:06.483Z,102168.66
2019-03-19T12:20:35.788Z,102159.70
2019-03-19T12:23:05.538Z,102154.48
2019-03-19T12:25:34.915Z,102150.91
2019-03-19T12:28:04.678Z,102146.19
2019-03-19T12:30:33.953Z,102144.77
2019-03-19T12:33:03.256Z,102133.89
2019-03-19T12:35:32.539Z,102129.80
2019-03-19T12:38:01.855Z,102137.45
2019-03-19T12:40:36.713Z,102131.75
2019-03-19T12:43:02.190Z,102123.89
2019-03-19T12:45:31.527Z,102125.47
2019-03-19T12:48:00.827Z,102117.88
2019-03-19T12:50:30.113Z,102115.51
2019-03-19T12:52:59.509Z,102117.95
2019-03-19T12:55:28.879Z,102117.36
2019-03-19T12:57:58.175Z,102115.66
2019-03-19T13:00:34.333Z,102105.58
2019-03-19T13:02:59.344Z,102112.03
2019-03-19T13:05:28.695Z,102121.80
2019-03-19T13:07:58.001Z,102129.34
2019-03-19T13:10:27.299Z,102128.60
2019-03-19T13:12:56.592Z,102133.16
2019-03-19T13:15:25.889Z,102130.99
2019-03-19T13:17:55.300Z,102134.61
2019-03-19T13:20:24.578Z,102139.02
2019-03-19T13:22:53.887Z,102135.77
2019-03-19T13:25:24.121Z,102142.54
2019-03-19T13:27:53.490Z,102138.69
2019-03-19T13:30:31.635Z,102139.78
2019-03-19T13:33:00.913Z,102149.11
2019-03-19T13:35:30.301Z,102152.20
2019-03-19T13:37:59.591Z,102145.02
2019-03-19T13:40:28.909Z,102145.09
2019-03-19T13:42:58.388Z,102153.34
2019-03-19T13:45:27.685Z,102147.83
2019-03-19T13:47:57.023Z,102145.38
2019-03-19T13:50:26.342Z,102145.16
2019-03-19T13:52:55.618Z,102145.65
2019-03-19T13:55:25.030Z,102143.37
2019-03-19T13:57:54.387Z,102143.90
2019-03-19T14:00:23.704Z,102150.64
2019-03-19T14:02:52.991Z,102148.56
2019-03-19T14:05:22.385Z,102144.52
2019-03-19T14:07:51.652Z,102146.20
2019-03-19T14:10:21.289Z,102152.06
2019-03-19T14:12:50.661Z,102148.24
2019-03-19T14:15:23.906Z,102143.97
2019-03-19T14:17:53.230Z,102141.41
2019-03-19T14:20:22.689Z,102146.71
2019-03-19T14:22:52.071Z,102150.75
2019-03-19T14:25:21.431Z,102146.02
2019-03-19T14:27:50.740Z,102149.60
2019-03-19T14:30:26.457Z,102150.13
2019-03-19T14:32:55.824Z,102156.89
2019-03-19T14:35:25.149Z,102149.42
2019-03-19T14:37:54.534Z,102150.97
2019-03-19T14:40:24.848Z,102153.16
2019-03-19T14:42:54.151Z,102150.97
2019-03-19T14:45:23.450Z,102158.84
2019-03-19T14:47:52.756Z,102161.45
2019-03-19T14:50:25.985Z,102151.97
2019-03-19T14:52:55.372Z,102151.77
2019-03-19T14:55:24.788Z,102154.55
2019-03-19T14:57:54.101Z,102153.03
2019-03-19T15:00:23.645Z,102150.70
2019-03-19T15:02:53.028Z,102155.72
2019-03-19T15:05:22.406Z,102151.20
2019-03-19T15:07:51.706Z,102152.37
2019-03-19T15:10:25.389Z,102151.63
2019-03-19T15:12:54.685Z,102154.50
2019-03-19T15:15:24.079Z,102150.93
2019-03-19T15:17:53.390Z,102146.22
2019-03-19T15:20:25.194Z,102150.47
2019-03-19T15:22:54.758Z,102148.17
2019-03-19T15:25:24.120Z,102143.06
2019-03-19T15:27:53.701Z,102146.30
2019-03-19T15:30:22.994Z,102142.57
2019-03-19T15:32:52.367Z,102154.81
2019-03-19T15:35:21.668Z,102151.47
2019-03-19T15:37:50.949Z,102149.11
2019-03-19T15:40:20.757Z,102154.91
2019-03-19T15:42:50.096Z,102154.56
2019-03-19T15:45:22.448Z,102155.27
2019-03-19T15:47:51.778Z,102155.48
2019-03-19T15:50:21.040Z,102152.27
2019-03-19T15:52:50.323Z,102144.49
2019-03-19T15:55:19.709Z,102146.83
2019-03-19T15:57:49.267Z,102144.94
2019-03-19T16:00:21.920Z,102152.78
2019-03-19T16:02:51.279Z,102147.02
2019-03-19T16:05:20.578Z,102148.52
2019-03-19T16:07:49.966Z,102140.38
2019-03-19T16:10:19.529Z,102150.97
2019-03-19T16:12:48.810Z,102158.25
2019-03-19T16:15:20.622Z,102151.00
2019-03-19T16:17:50.248Z,102158.10
2019-03-19T16:20:23.404Z,102165.82
2019-03-19T16:22:52.693Z,102165.34
2019-03-19T16:25:22.112Z,102163.33
2019-03-19T16:27:51.399Z,102165.58
2019-03-19T16:30:21.236Z,102169.99
2019-03-19T16:32:50.512Z,102167.40
2019-03-19T16:35:19.819Z,102167.67
2019-03-19T16:37:49.155Z,102171.12
2019-03-19T16:40:19.218Z,102172.05
2019-03-19T16:42:48.573Z,102171.81
2019-03-19T16:45:18.703Z,102174.14
2019-03-19T16:47:48.130Z,102184.28
2019-03-19T16:50:19.483Z,102177.51
2019-03-19T16:52:48.798Z,102180.19
2019-03-19T16:55:19.063Z,102183.48
2019-03-19T16:57:48.366Z,102184.30
2019-03-19T17:00:24.927Z,102194.05
2019-03-19T17:02:54.622Z,102199.04
2019-03-19T17:05:24.139Z,102201.47
2019-03-19T17:07:53.454Z,102200.97
2019-03-19T17:10:28.127Z,102203.11
2019-03-19T17:12:57.745Z,102210.53
2019-03-19T17:15:27.192Z,102217.09
2019-03-19T17:17:56.495Z,102214.52
2019-03-19T17:20:25.873Z,102213.98
2019-03-19T17:22:55.216Z,102215.11
2019-03-19T17:25:25.879Z,102220.94
2019-03-19T17:27:55.173Z,102223.87
2019-03-19T17:30:29.965Z,102226.42
2019-03-19T17:32:59.290Z,102236.42
2019-03-19T17:35:28.575Z,102241.63
2019-03-19T17:37:57.881Z,102241.34
2019-03-19T17:40:27.201Z,102241.44
2019-03-19T17:42:56.562Z,102244.15
2019-03-19T17:45:25.950Z,102249.05
2019-03-19T17:47:55.537Z,102259.16
2019-03-19T17:50:33.340Z,102250.23
2019-03-19T17:53:02.871Z,102255.45
2019-03-19T17:55:32.141Z,102252.70
2019-03-19T17:58:01.439Z,102262.56
2019-03-19T18:00:38.221Z,102258.72
2019-03-19T18:03:07.690Z,102259.46
2019-03-19T18:05:37.014Z,102259.46
2019-03-19T18:08:06.438Z,102285.09
2019-03-19T18:10:35.814Z,102268.92
2019-03-19T18:13:06.765Z,102278.27
2019-03-19T18:15:36.323Z,102282.03
2019-03-19T18:18:05.855Z,102284.77
2019-03-19T18:20:38.412Z,102295.55
2019-03-19T18:23:07.781Z,102292.70
2019-03-19T18:25:37.247Z,102294.58
2019-03-19T18:28:06.652Z,102294.70
2019-03-19T18:30:36.007Z,102302.61
2019-03-19T18:33:05.320Z,102300.88
2019-03-19T18:35:34.601Z,102302.27
2019-03-19T18:38:03.907Z,102301.67
2019-03-19T18:40:33.210Z,102302.30
2019-03-19T18:43:02.485Z,102308.36
2019-03-19T18:45:31.789Z,102311.14
2019-03-19T18:48:01.119Z,102313.77
2019-03-19T18:50:30.426Z,102319.80
2019-03-19T18:52:59.727Z,102320.82
2019-03-19T18:55:29.019Z,102319.89
2019-03-19T18:57:58.323Z,102328.80
2019-03-19T19:00:27.603Z,102328.80
2019-03-19T19:02:56.955Z,102328.86
2019-03-19T19:05:26.283Z,102332.75
2019-03-19T19:07:55.598Z,102330.47
2019-03-19T19:10:25.047Z,102334.86
2019-03-19T19:12:54.360Z,102333.55
2019-03-19T19:15:24.736Z,102339.80
2019-03-19T19:17:54.098Z,102339.80
2019-03-19T19:20:23.750Z,102339.97
2019-03-19T19:22:53.056Z,102342.13
2019-03-19T19:25:26.499Z,102342.13
2019-03-19T19:27:55.874Z,102346.06
2019-03-19T19:30:26.613Z,102336.95
2019-03-19T19:33:01.526Z,102336.95
2019-03-19T19:35:27.406Z,102336.95
2019-03-19T19:37:56.720Z,102352.09
2019-03-19T19:40:26.108Z,102352.09
2019-03-19T19:42:55.394Z,102361.36
2019-03-19T19:45:25.060Z,102357.95
2019-03-19T19:47:54.375Z,102363.07
2019-03-19T19:50:24.057Z,102364.47
2019-03-19T19:52:53.462Z,102364.47
2019-03-19T19:55:22.847Z,102365.78
2019-03-19T19:57:52.128Z,102365.78
2019-03-19T20:00:23.350Z,102371.69
2019-03-19T20:02:52.653Z,102378.16
2019-03-19T20:05:22.025Z,102385.98
2019-03-19T20:07:51.365Z,102385.98
2019-03-19T20:10:27.665Z,102393.84
2019-03-19T20:12:57.433Z,102393.84
2019-03-19T20:15:27.525Z,102399.82
2019-03-19T20:17:56.845Z,102398.75
2019-03-19T20:20:28.555Z,102402.98
2019-03-19T20:22:57.958Z,102401.93
2019-03-19T20:25:27.272Z,102405.50
2019-03-19T20:27:56.716Z,102403.14
2019-03-19T20:30:26.958Z,102409.87
2019-03-19T20:32:56.715Z,102412.42
2019-03-19T20:35:26.034Z,102408.81
2019-03-19T20:37:55.356Z,102405.88
2019-03-19T20:40:24.666Z,102416.10
2019-03-19T20:42:54.031Z,102419.70
2019-03-19T20:45:25.460Z,102421.78
2019-03-19T20:47:54.747Z,102421.70
2019-03-19T20:50:31.086Z,102424.77
2019-03-19T20:53:00.349Z,102424.11
2019-03-19T20:55:29.849Z,102429.47
2019-03-19T20:57:59.282Z,102441.03
2019-03-19T21:00:28.670Z,102441.44
2019-03-19T21:02:58.074Z,102441.22
2019-03-19T21:05:27.375Z,102445.50
2019-03-19T21:07:56.676Z,102453.20
2019-03-19T21:10:26.249Z,102456.27
2019-03-19T21:12:55.634Z,102453.37
2019-03-19T21:15:25.956Z,102459.67
2019-03-19T21:17:55.514Z,102458.44
2019-03-19T21:20:24.793Z,102457.98
2019-03-19T21:22:54.129Z,102462.38
2019-03-19T21:25:23.396Z,102462.75
2019-03-19T21:27:52.788Z,102460.46
2019-03-19T21:30:25.365Z,102464.23
2019-03-19T21:32:54.689Z,102463.16
2019-03-19T21:35:25.131Z,102465.38
2019-03-19T21:37:54.528Z,102477.64
2019-03-19T21:40:23.953Z,102477.76
2019-03-19T21:42:53.282Z,102491.27
2019-03-19T21:45:23.146Z,102484.49
2019-03-19T21:47:52.455Z,102503.23
2019-03-19T21:50:23.508Z,102500.20
2019-03-19T21:52:52.845Z,102497.79
2019-03-19T21:55:22.380Z,102501.00
2019-03-19T21:57:51.731Z,102498.23
2019-03-19T22:00:23.435Z,102494.69
2019-03-19T22:02:53.089Z,102496.92
2019-03-19T22:05:22.645Z,102496.28
2019-03-19T22:07:52.357Z,102496.28
2019-03-19T22:10:22.763Z,102503.22
2019-03-19T22:12:52.064Z,102501.88
2019-03-19T22:15:27.488Z,102508.13
2019-03-19T22:17:56.818Z,102506.05
2019-03-19T22:20:26.126Z,102508.39
2019-03-19T22:22:55.556Z,102506.31
2019-03-19T22:25:24.877Z,102509.03
2019-03-19T22:27:54.336Z,102513.81
2019-03-19T22:30:23.990Z,102506.19
2019-03-19T22:32:53.367Z,102516.59
2019-03-19T22:35:22.699Z,102517.34
2019-03-19T22:37:52.259Z,102513.64
2019-03-19T22:40:21.571Z,102513.91
2019-03-19T22:42:50.862Z,102513.94
2019-03-19T22:45:20.552Z,102506.12
2019-03-19T22:47:49.833Z,102506.47
2019-03-19T22:50:19.497Z,102509.11
2019-03-19T22:52:48.944Z,102502.89
2019-03-19T22:55:28.647Z,102499.61
2019-03-19T22:57:49.285Z,102498.73
2019-03-19T23:00:33.600Z,102497.68
2019-03-19T23:03:03.124Z,102507.58
2019-03-19T23:05:32.495Z,102506.78
2019-03-19T23:08:01.862Z,102505.98
2019-03-19T23:10:31.332Z,102516.71
2019-03-19T23:13:00.778Z,102517.11
2019-03-19T23:15:30.149Z,102524.61
2019-03-19T23:17:59.515Z,102524.75
2019-03-19T23:20:29.454Z,102529.66
2019-03-19T23:22:58.760Z,102526.20
2019-03-19T23:25:28.044Z,102523.52
2019-03-19T23:27:57.351Z,102520.23
2019-03-19T23:30:26.904Z,102526.61
2019-03-19T23:32:56.203Z,102532.91
2019-03-19T23:35:25.479Z,102525.70
2019-03-19T23:37:55.055Z,102527.23
2019-03-19T23:40:24.400Z,102526.35
2019-03-19T23:42:53.712Z,102533.01
2019-03-19T23:45:23.093Z,102540.72
2019-03-19T23:47:52.566Z,102549.17
2019-03-19T23:50:21.930Z,102554.32
2019-03-19T23:52:51.508Z,102547.64
2019-03-19T23:55:20.821Z,102552.88
2019-03-19T23:57:50.119Z,102551.16
